x

West Moresby (46208) Wave Buoy

2:00am - Sun 30th Aug 2015 All times are PDT. -7 hours from GMT.

  • Sig Wave height 9.2ft
  • Peak Period 11s
  • Wind
    18mph, 20mph gusts
  • Sea Temp 60°f
  • Air Temp 59°f
  • Sea Pressure 996.6mb
  • West Moresby
  • West Moresby

More Historic Weather Station data

Upgrade to MSW Pro to gain access to the past 30 days of data for over 8000 Wavebouys and Weather Stations around the globe.

Join Pro

Comparision Forecast

View Surf forecast
   
Sun 08/30 2:00am 9ft 11s 18 20 mph 996.6mb 60f 59f
1:00am 9ft 12s 16 20 mph 996.3mb 60f 59f
12:00am 8ft 12s 13 18 mph 996mb 60f 58f
Sat 08/29 11:00pm 8ft 12s 18 20 mph 995.5mb 60f 59f
10:00pm 9ft 12s 13 18 mph 995mb 60f 59f
9:00pm 9.5ft 17s 13 18 mph 994.5mb 60f 59f
8:00pm 10ft 11s 18 22 mph 993.7mb 60f 59f
7:00pm 11.5ft 11s 16 20 mph 992.9mb 60f 59f
6:00pm 11.5ft 11s 9 11 mph 992.4mb 61f 60f
5:00pm 12ft 11s 7 9 mph 991.7mb 61f 59f
4:00pm 11ft 12s 9 11 mph 991.1mb 61f 58f
3:00pm 11ft 12s 9 11 mph 990.3mb 61f 59f
2:00pm 11.5ft 12s 7 9 mph 990mb 61f 58f
1:00pm 10ft 13s 4 7 mph 989.9mb 61f 58f
12:00pm 10ft 13s 2 4 mph 989.8mb 60f 58f
11:00am 9.5ft 12s 2 4 mph 990.2mb 60f 59f
10:00am 9.5ft 13s 2 4 mph 990.5mb 60f 58f
9:00am 10.5ft 13s 2 4 mph 991.1mb 59f 58f
8:00am 10ft 12s 4 7 mph 991.7mb 59f 58f
7:00am 11ft 13s 4 7 mph 992.2mb 59f 58f
6:00am 10.5ft 12s 4 7 mph 992.7mb 59f 58f
5:00am 10ft 11s 7 9 mph 993.1mb 59f 58f
4:00am 11ft 10s 7 11 mph 993.3mb 59f 58f
3:00am 10ft 8s 4 7 mph 993.9mb 59f 56f
2:00am 9.5ft 8s 4 9 mph 994.5mb 59f 56f
1:00am 8ft 7s 11 13 mph 995.2mb 59f 57f
12:00am 8ft 8s 13 18 mph 995.6mb 59f 57f
Fri 08/28 11:00pm 8ft 8s 11 16 mph 996.2mb 59f 57f
10:00pm 7ft 8s 9 11 mph 996.8mb 59f 58f
9:00pm 8ft 8s 9 11 mph 997.1mb 59f 57f
8:00pm 7.5ft 8s 13 18 mph 997.3mb 59f 58f
6:00pm 8ft 8s 18 22 mph 997.5mb 60f 59f
5:00pm 10ft 8s 22 27 mph 997.7mb 60f 58f
4:00pm 9.5ft 8s 13 18 mph 997.5mb 60f 57f
3:00pm 10.5ft 7s 18 22 mph 997.6mb 60f 58f
2:00pm 10ft 7s 29 34 mph 996.8mb 60f 59f
1:00pm 9ft 7s 29 36 mph 997.4mb 60f 59f
12:00pm 8ft 6s 25 29 mph 997.9mb 60f 59f
11:00am 7ft 16s 22 27 mph 998.1mb 60f 59f
10:00am 6ft 6s 20 25 mph 998.5mb 60f 60f
9:00am 5.5ft 6s 18 22 mph 999.1mb 60f 60f
8:00am 5.5ft 6s 18 22 mph 1000.1mb 60f 59f
7:00am 5.5ft 14s 18 22 mph 1000.6mb 60f 59f
6:00am 5ft 16s 22 27 mph 1001.3mb 60f 60f
5:00am 4.5ft 15s 20 25 mph 1002.5mb 60f 61f
4:00am 4.5ft 13s 20 25 mph 1003.5mb 60f 61f
3:00am 4.5ft 14s 18 20 mph 1004.5mb 60f 61f
2:00am 4.5ft 14s 18 20 mph 1005.7mb 61f 61f
1:00am 4.5ft 14s 18 22 mph 1006.3mb 61f 61f
12:00am 4.5ft 15s 13 16 mph 1007.3mb 61f 61f
Thu 08/27 11:00pm 4.5ft 14s 13 16 mph 1008.1mb 61f 61f
10:00pm 4ft 14s 11
mph
1009.2mb 61f 61f
9:00pm 4.5ft 16s 11 13 mph 1010mb 61f 61f
8:00pm 4.5ft 14s 11 16 mph 1010.9mb 61f 61f
7:00pm 4.5ft 15s 7 9 mph 1011.9mb 61f 61f
6:00pm 4.5ft 15s 7 9 mph 1012.9mb 61f 61f
5:00pm 4.5ft 14s 9 11 mph 1013.6mb 61f 61f
4:00pm 4.5ft 15s 9
mph
1014.2mb 62f 61f
3:00pm 4.5ft 14s 9 11 mph 1015mb 62f 61f
2:00pm 4.5ft 14s 7 9 mph 1015.4mb 62f 61f
1:00pm 4.5ft 15s 4 7 mph 1015.6mb 62f 61f
12:00pm 4.5ft 14s 2 4 mph 1015.6mb 62f 61f
11:00am 4ft 14s 4 7 mph 1016mb 62f 60f
10:00am 4ft 14s 4 7 mph 1016.6mb 61f 60f
9:00am 4ft 14s 2 4 mph 1016.5mb 61f 60f
8:00am 4ft 15s 2
mph
1016.6mb 61f 61f
7:00am 4ft 15s  -  mph 1016.2mb 60f 60f
6:00am 4.5ft 15s 4 7 mph 1016.5mb 60f 60f
5:00am 4.5ft 14s 4
mph
1016.7mb 61f 60f
4:00am 4.5ft 15s 2
mph
1016.9mb 61f 60f
3:00am 4.5ft 15s 7
mph
1016.9mb 61f 60f
2:00am 4.5ft 16s 7 9 mph 1016.8mb 61f 60f
1:00am 4.5ft 16s 2 4 mph 1016.8mb 61f 60f
12:00am 4.5ft 15s  -  2 mph 1017mb 61f 61f
Wed 08/26 11:00pm 4.5ft 14s 4
mph
1017.3mb 61f 61f
10:00pm 4ft 14s 4
mph
1017.4mb 62f 61f
9:00pm 4.5ft 14s 4 7 mph 1017.4mb 62f 62f
8:00pm 4.5ft 15s 7 9 mph 1017.6mb 63f 62f
7:00pm 4ft 15s 2 4 mph 1017.6mb 64f 63f
6:00pm 4ft 14s 2 4 mph 1017.8mb 65f 63f
5:00pm 4ft 15s  -  2 mph 1017.9mb 66f 63f
4:00pm 4.5ft 14s  -  2 mph 1017.8mb 64f 63f
3:00pm 4ft 14s  -  2 mph 1018.1mb 63f 62f
2:00pm 4.5ft 14s 2 4 mph 1018.1mb 62f 61f
1:00pm 4.5ft 14s 2 4 mph 1018.2mb 62f 61f
12:00pm 4.5ft 15s 2 4 mph 1017.9mb 61f 61f
11:00am 4.5ft 16s 2 4 mph 1018.2mb 60f 60f